• Join FlightAware (Why Join?)
  • Login
  • US Flag 
09:39AM EST


 

Airport Tracker/Info


-or-


 

Live Flight TrackerFlight Track Log ✈ SWA492 ✈ 14-Jun-2013 ✈ KMSP - KMDW

Flight Track Log - Related Links

Times and Time Zones

All times are in EDT time to prevent confusion due to time zone crossing. See the SWA492 flight status page for this flight to view local times or setup timezone preferences in your user account.

Time Position Orientation Groundspeed Altitude Reporting Facility
EDT Latitude Longitude Course Direction KTS MPH feet Rate Location/Type
06:49AM 44.8611 -93.1564 133° Southeast 159 183 3,100  Level Minneapolis Center
06:50AM 44.8217 -93.0986 134° Southeast 227 261 5,200 2,760 Climbing Minneapolis Center
06:51AM 44.7503 -93.0608 159° South 270 311 8,700 3,120 Climbing Minneapolis Center
06:52AM 44.6675 -93.0139 158° South 319 367 11,600 3,120 Climbing Minneapolis Center
06:53AM 44.5761 -92.9628 158° South 350 403 15,000 3,120 Climbing Minneapolis Center
06:54AM 44.4806 -92.9072 157° South 370 426 18,000 2,880 Climbing Minneapolis Center
06:55AM 44.3402 -92.8186 133° Southeast  Level FlightAware Approximate
06:55AM 44.3917 -92.8244 146° Southeast 381 438 20,900  Level Minneapolis Center
06:56AM 44.2953 -92.7364 147° Southeast 404 465 23,100 2,160 Climbing Minneapolis Center
06:58AM 44.1931 -92.6419 146° Southeast 428 493 25,300 2,280 Climbing Minneapolis Center
06:59AM 44.0856 -92.5447 147° Southeast 453 521 27,800 2,460 Climbing Minneapolis Center
07:00AM 43.9806 -92.4500 147° Southeast 454 522 30,300 1,560 Climbing Minneapolis Center
07:01AM 43.8753 -92.3567 147° Southeast 451 519 31,000 300 Climbing Minneapolis Center
07:02AM 43.7733 -92.2597 146° Southeast 458 527 31,000  Level Minneapolis Center
07:03AM 43.6667 -92.1658 148° Southeast 458 527 31,000 -60 Level Minneapolis Center
07:04AM 43.5603 -92.0708 147° Southeast 459 528 30,900 -660 Descending Minneapolis Center
07:05AM 43.4761 -91.9981 148° Southeast 455 524 29,700 -960 Descending Minneapolis Center
07:06AM 43.3497 -91.8883 148° Southeast 451 519 29,000 -360 Descending Minneapolis Center
07:07AM 43.2236 -91.7756 147° Southeast 453 521 29,000  Level Minneapolis Center
07:08AM 43.1183 -91.6817 147° Southeast 453 521 29,000  Level Minneapolis Center
07:09AM 43.0092 -91.5869 148° Southeast 460 529 29,000  Level Minneapolis Center
07:10AM 42.8992 -91.4897 147° Southeast 465 535 29,000  Level Minneapolis Center
07:11AM 42.8086 -91.4136 148° Southeast 468 539 29,000  Level Chicago Center
07:12AM 42.6975 -91.3169 147° Southeast 469 540 29,000  Level Chicago Center
07:13AM 42.5872 -91.2231 148° Southeast 468 539 29,000 -360 Level Chicago Center
07:14AM 42.4783 -91.1306 148° Southeast 465 535 28,300 -1,140 Descending Chicago Center
07:15AM 42.3722 -91.0392 148° Southeast 456 525 26,700 -1,380 Descending Chicago Center
07:16AM 42.2506 -90.9356 148° Southeast 437 503 25,500 -1,140 Descending Chicago Center
07:17AM 42.1517 -90.8542 149° Southeast 424 488 24,500 -780 Descending Chicago Center
07:18AM 42.0553 -90.7728 148° Southeast 414 476 24,000 -720 Descending Chicago Center
07:19AM 41.9583 -90.6925 148° Southeast 411 473 23,100 -540 Descending Chicago Center
07:20AM 41.8619 -90.6119 148° Southeast 406 467 23,000 -60 Descending Chicago Center
07:21AM 41.7731 -90.5392 149° Southeast 404 465 23,000  Level Chicago Center
07:22AM 41.6708 -90.4225 140° Southeast 404 465 23,000  Level Chicago Center
07:23AM 41.5989 -90.3019 129° Southeast 412 474 23,000  Level Chicago Center
07:24AM 41.5264 -90.1856 130° Southeast 410 472 23,000 -300 Level Chicago Center
07:25AM 41.4536 -90.0658 129° Southeast 413 475 22,500 -1,140 Descending Chicago Center
07:26AM 41.3822 -89.9492 129° Southeast 408 470 20,700 -1,740 Descending Chicago Center
07:27AM 41.3153 -89.8378 129° Southeast 392 451 19,000 -1,620 Descending Chicago Center
07:28AM 41.2489 -89.7306 129° Southeast 379 436 17,400 -1,680 Descending Chicago Center
07:29AM 41.1833 -89.6261 130° Southeast 369 425 15,600 -1,440 Descending Chicago Center
07:30AM 41.1669 -89.5036 100° East 345 397 14,500 -1,080 Descending Chicago Center
07:31AM 41.2006 -89.3919 68° East 327 376 13,500 -1,020 Descending Chicago Center
07:32AM 41.2364 -89.2822 66° East 324 373 12,500 -1,080 Descending Chicago Center
07:33AM 41.2750 -89.1592 67° East 315 362 11,300 -1,080 Descending Chicago Center
07:34AM 41.3106 -89.0528 66° East 314 361 10,300 -600 Descending Chicago Center
07:35AM 41.3444 -88.9494 66° East 309 356 10,100 -120 Descending Chicago Center
07:36AM 41.3764 -88.8478 67° East 300 345 10,100 -540 Level Chicago Center
07:37AM 41.4139 -88.7306 67° East 287 330 9,100 -1,260 Descending Chicago Center
07:38AM 41.4442 -88.6353 67° East 282 325 7,600 -1,380 Descending Chicago Center
07:39AM 41.4742 -88.5425 67° East 275 316 6,300 -1,140 Descending Chicago Center
07:40AM 41.5003 -88.4517 69° East 266 306 5,300 -1,080 Descending Chicago Center
07:41AM 41.5256 -88.3633 69° East 258 297 4,100 -600 Descending Chicago Center
07:42AM 41.5553 -88.2603 69° East 250 288 4,000 -60 Descending Chicago Center
07:43AM 41.5794 -88.1733 70° East 249 287 4,000 -60 Level Chicago Center
07:45AM 41.6044 -88.0878 69° East 247 284 3,900 -540 Descending Chicago Center
07:46AM 41.6292 -88.0011 69° East 248 285 3,000 -480 Descending Chicago Center
07:47AM 41.6556 -87.9178 67° East 218 251 3,000 -300 Level Chicago Center
07:48AM 41.6897 -87.8703 46° Northeast 194 223 2,400 -420 Descending Chicago Center
07:49AM 41.7222 -87.8314 42° Northeast 174 200 2,200 -420 Descending Chicago Center
07:50AM 41.7517 -87.7944 43° Northeast 157 181 1,600 -660 Descending Chicago Center
07:51AM 41.7733 -87.7667 44° Northeast 136 157 900 -720 Descending Chicago Center